Strona główna
METAR-TAF:

METAR-TAF

Lotnisko :

Port lotniczy Đà Nẵng

Đà Nẵng, Wietnam

Szerokość geograficzna: 16-02N, Długość geograficzna: 108-11E, wysokość: 7 m

Aktualna obserwacja pogody

Raport powstał 12 minut temu, godzina 22:30 UTC
Cisza
Temperatura 24°C
Wilgotność 94%
Ciśnienie 1014 hPa
Widzialność: 6000 m
Mało chmury na wysokości 1500 ft

METAR: VVDN 102230Z 00000KT 6000 FEW015 24/23 Q1014 NOSIG

czas: 05:42 (22:42 UTC)

Prognoza

Raport powstał 5 godziny i 42 minut temu, godzina 17:00 UTC
Prognoza ważna od 10 godzina 18 UTC do 11 godzina 18 UTC
Wiatr 4 kt od północ
Widzialność: 7000 m
Rozproszone chmury na wysokości 1200 ft
Przerywane chmury na wysokości 6000 ft
Przejściowo
od 10 godzina 18 UTC do 11 godzina 02 UTC
Widzialność: 4000 m
deszcz, zamglenie

TAF: VVDN 101700Z 1018/1118 35004KT 7000 SCT012 BKN060 TEMPO 1018/1102 4000 RA BR

Obserwacja i prognoza pogody dla ponad 4000 lotnisk (raport METAR i TAF).

Dostępne stacje oznaczono żółtymi i czerwonymi punktami na mapie.

Najedź kursorem aby zobaczyć nazwę stacji.

Kliknij aby zobaczyć obserwacje i prognozy pogody.

Aby zmienić mapę: kliknij na zielony przycisk z czarnym krzyżykiem, aby powiększyć; na zielony przycisk z myślnikiem, aby pomniejszyć; na zielone strzałki, aby przejść do map sąsiednich.


METAR-TAF: